createdAt,value
2023-01-02T00:00:15.778Z,3.80
2023-01-02T00:02:45.774Z,3.80
2023-01-02T00:05:12.471Z,3.90
2023-01-02T00:07:39.179Z,3.90
2023-01-02T00:10:05.981Z,4.00
2023-01-02T00:12:32.681Z,3.90
2023-01-02T00:14:59.288Z,3.90
2023-01-02T00:17:25.878Z,3.90
2023-01-02T00:19:52.553Z,3.90
2023-01-02T00:22:19.203Z,3.90
2023-01-02T00:24:45.836Z,3.90
2023-01-02T00:27:12.545Z,3.90
2023-01-02T00:29:39.257Z,4.00
2023-01-02T00:32:05.889Z,4.00
2023-01-02T00:34:32.665Z,4.00
2023-01-02T00:36:59.421Z,4.00
2023-01-02T00:39:27.500Z,4.00
2023-01-02T00:41:54.240Z,4.00
2023-01-02T00:44:21.959Z,4.00
2023-01-02T00:46:48.654Z,3.90
2023-01-02T00:49:15.331Z,3.90
2023-01-02T00:51:42.035Z,3.90
2023-01-02T00:54:08.776Z,3.80
2023-01-02T00:56:35.535Z,3.80
2023-01-02T00:59:02.244Z,3.80
2023-01-02T01:01:29.073Z,3.80
2023-01-02T01:03:55.791Z,3.70
2023-01-02T01:06:25.533Z,3.70
2023-01-02T01:08:52.499Z,3.70
2023-01-02T01:11:19.162Z,3.70
2023-01-02T01:13:45.797Z,3.70
2023-01-02T01:16:14.603Z,3.60
2023-01-02T01:18:42.339Z,3.60
2023-01-02T01:21:10.270Z,3.50
2023-01-02T01:23:37.023Z,3.40
2023-01-02T01:26:11.537Z,3.30
2023-01-02T01:28:38.210Z,3.30
2023-01-02T01:31:09.355Z,3.30
2023-01-02T01:33:36.523Z,3.30
2023-01-02T01:36:24.105Z,3.30
2023-01-02T01:38:51.075Z,3.30
2023-01-02T01:41:19.569Z,3.30
2023-01-02T01:43:50.581Z,3.30
2023-01-02T01:46:22.574Z,3.30
2023-01-02T01:48:52.400Z,3.30
2023-01-02T01:51:20.084Z,3.30
2023-01-02T01:53:47.212Z,3.30
2023-01-02T01:56:14.850Z,3.20
2023-01-02T01:58:43.283Z,3.10
2023-01-02T02:01:12.880Z,3.10
2023-01-02T02:03:41.479Z,3.00
2023-01-02T02:06:08.277Z,3.00
2023-01-02T02:08:42.848Z,3.00
2023-01-02T02:11:10.037Z,3.00
2023-01-02T02:13:36.896Z,3.10
2023-01-02T02:16:03.639Z,3.10
2023-01-02T02:18:49.094Z,3.10
2023-01-02T02:21:15.831Z,3.10
2023-01-02T02:23:45.533Z,3.10
2023-01-02T02:26:12.990Z,3.10
2023-01-02T02:28:59.600Z,3.20
2023-01-02T02:31:26.213Z,3.10
2023-01-02T02:34:03.574Z,3.00
2023-01-02T02:36:41.601Z,2.90
2023-01-02T02:39:27.159Z,2.90
2023-01-02T02:41:53.746Z,2.90
2023-01-02T02:44:28.448Z,2.80
2023-01-02T02:47:00.240Z,2.80
2023-01-02T02:49:47.137Z,2.80
2023-01-02T02:52:26.601Z,2.80
2023-01-02T02:55:07.146Z,2.80
2023-01-02T02:57:34.898Z,2.80
2023-01-02T03:00:03.905Z,2.80
2023-01-02T03:02:30.724Z,2.80
2023-01-02T03:04:59.217Z,2.80
2023-01-02T03:07:31.271Z,2.80
2023-01-02T03:10:06.658Z,2.80
2023-01-02T03:12:53.574Z,2.90
2023-01-02T03:15:20.255Z,2.90
2023-01-02T03:17:59.850Z,2.90
2023-01-02T03:20:28.664Z,2.90
2023-01-02T03:22:58.242Z,2.90
2023-01-02T03:25:24.944Z,2.90
2023-01-02T03:27:52.866Z,2.90
2023-01-02T03:30:23.068Z,2.90
2023-01-02T03:32:49.680Z,2.90
2023-01-02T03:35:19.433Z,3.00
2023-01-02T03:37:48.237Z,3.10
2023-01-02T03:40:18.754Z,3.20
2023-01-02T03:42:47.335Z,3.20
2023-01-02T03:45:34.129Z,3.30
2023-01-02T03:48:15.940Z,3.30
2023-01-02T03:50:48.314Z,3.20
2023-01-02T03:53:15.101Z,3.20
2023-01-02T03:55:43.459Z,3.30
2023-01-02T03:58:22.164Z,3.40
2023-01-02T04:00:54.178Z,3.40
2023-01-02T04:03:24.601Z,3.50
2023-01-02T04:06:00.205Z,3.40
2023-01-02T04:08:47.649Z,3.40
2023-01-02T04:11:16.229Z,3.50
2023-01-02T04:13:44.423Z,3.60
2023-01-02T04:16:13.320Z,3.60
2023-01-02T04:18:46.652Z,3.70
2023-01-02T04:21:17.416Z,3.70
2023-01-02T04:23:46.913Z,3.70
2023-01-02T04:26:16.659Z,3.60
2023-01-02T04:28:43.603Z,3.50
2023-01-02T04:31:14.022Z,3.50
2023-01-02T04:33:44.784Z,3.50
2023-01-02T04:36:12.752Z,3.50
2023-01-02T04:38:39.880Z,3.60
2023-01-02T04:41:06.894Z,3.60
2023-01-02T04:43:33.608Z,3.60
2023-01-02T04:46:00.279Z,3.60
2023-01-02T04:48:26.951Z,3.50
2023-01-02T04:50:54.077Z,3.50
2023-01-02T04:53:21.040Z,3.40
2023-01-02T04:55:47.680Z,3.30
2023-01-02T04:58:14.401Z,3.30
2023-01-02T05:00:44.124Z,3.20
2023-01-02T05:03:10.803Z,3.20
2023-01-02T05:05:37.459Z,3.20
2023-01-02T05:08:04.216Z,3.30
2023-01-02T05:10:30.906Z,3.30
2023-01-02T05:13:00.630Z,3.30
2023-01-02T05:15:27.417Z,3.30
2023-01-02T05:17:54.151Z,3.30
2023-01-02T05:20:20.820Z,3.20
2023-01-02T05:23:06.404Z,3.20
2023-01-02T05:25:34.284Z,3.20
2023-01-02T05:28:01.306Z,3.30
2023-01-02T05:30:28.267Z,3.20
2023-01-02T05:32:54.952Z,3.20
2023-01-02T05:35:23.620Z,3.20
2023-01-02T05:37:54.145Z,3.10
2023-01-02T05:40:20.868Z,3.10
2023-01-02T05:42:47.475Z,3.10
2023-01-02T05:45:14.181Z,3.10
2023-01-02T05:47:40.802Z,3.20
2023-01-02T05:50:07.852Z,3.20
2023-01-02T05:52:35.272Z,3.20
2023-01-02T05:55:04.452Z,3.30
2023-01-02T05:57:31.095Z,3.30
2023-01-02T05:59:57.695Z,3.30
2023-01-02T06:02:24.398Z,3.30
2023-01-02T06:04:51.043Z,3.30
2023-01-02T06:07:17.669Z,3.30
2023-01-02T06:09:44.306Z,3.30
2023-01-02T06:12:10.983Z,3.20
2023-01-02T06:14:37.604Z,3.20
2023-01-02T06:17:04.344Z,3.20
2023-01-02T06:19:30.977Z,3.20
2023-01-02T06:21:57.607Z,3.20
2023-01-02T06:24:24.246Z,3.20
2023-01-02T06:26:50.964Z,3.20
2023-01-02T06:29:17.616Z,3.10
2023-01-02T06:31:49.384Z,3.10
2023-01-02T06:34:18.062Z,3.10
2023-01-02T06:36:44.726Z,3.10
2023-01-02T06:39:11.439Z,3.10
2023-01-02T06:41:38.099Z,3.10
2023-01-02T06:44:04.862Z,3.10
2023-01-02T06:46:31.672Z,3.10
2023-01-02T06:48:58.286Z,3.10
2023-01-02T06:51:24.986Z,3.10
2023-01-02T06:53:51.753Z,3.10
2023-01-02T06:56:19.187Z,3.10
2023-01-02T06:58:45.890Z,3.10
2023-01-02T07:01:20.059Z,3.00
2023-01-02T07:03:46.795Z,3.00
2023-01-02T07:06:18.149Z,3.00
2023-01-02T07:08:44.786Z,3.00
2023-01-02T07:11:13.152Z,2.90
2023-01-02T07:13:40.395Z,2.90
2023-01-02T07:16:08.530Z,3.00
2023-01-02T07:18:35.396Z,3.00
2023-01-02T07:21:02.071Z,3.00
2023-01-02T07:23:28.744Z,3.00
2023-01-02T07:25:56.384Z,3.00
2023-01-02T07:28:23.492Z,3.00
2023-01-02T07:30:51.195Z,3.00
2023-01-02T07:33:17.861Z,3.00
2023-01-02T07:35:45.389Z,3.10
2023-01-02T07:38:12.306Z,3.10
2023-01-02T07:40:39.045Z,3.20
2023-01-02T07:43:05.780Z,3.20
2023-01-02T07:45:34.255Z,3.30
2023-01-02T07:48:01.319Z,3.40
2023-01-02T07:50:28.121Z,3.40
2023-01-02T07:52:54.948Z,3.50
2023-01-02T07:55:21.657Z,3.50
2023-01-02T07:57:48.423Z,3.50
2023-01-02T08:00:18.756Z,3.50
2023-01-02T08:02:45.616Z,3.60
2023-01-02T08:05:12.360Z,3.70
2023-01-02T08:07:44.668Z,3.70
2023-01-02T08:10:12.532Z,3.80
2023-01-02T08:12:39.577Z,3.80
2023-01-02T08:15:06.644Z,3.90
2023-01-02T08:17:33.331Z,3.90
2023-01-02T08:20:06.810Z,4.00
2023-01-02T08:22:33.617Z,4.10
2023-01-02T08:25:00.321Z,4.20
2023-01-02T08:27:26.981Z,4.30
2023-01-02T08:29:53.688Z,4.40
2023-01-02T08:32:20.371Z,4.50
2023-01-02T08:34:47.061Z,4.50
2023-01-02T08:37:14.243Z,4.60
2023-01-02T08:39:40.931Z,4.70
2023-01-02T08:42:08.532Z,4.80
2023-01-02T08:44:35.546Z,4.90
2023-01-02T08:47:02.161Z,5.00
2023-01-02T08:49:28.779Z,5.00
2023-01-02T08:51:55.478Z,5.10
2023-01-02T08:54:22.226Z,5.10
2023-01-02T08:56:49.086Z,5.20
2023-01-02T08:59:15.763Z,5.30
2023-01-02T09:01:42.941Z,5.30
2023-01-02T09:04:12.922Z,5.50
2023-01-02T09:06:40.847Z,5.50
2023-01-02T09:09:11.973Z,5.70
2023-01-02T09:11:42.528Z,5.80
2023-01-02T09:14:09.154Z,6.00
2023-01-02T09:16:35.880Z,6.20
2023-01-02T09:19:02.968Z,6.30
2023-01-02T09:21:29.719Z,6.40
2023-01-02T09:23:56.545Z,6.50
2023-01-02T09:26:23.219Z,6.60
2023-01-02T09:28:50.007Z,6.60
2023-01-02T09:31:17.362Z,6.70
2023-01-02T09:33:45.019Z,6.80
2023-01-02T09:36:12.838Z,6.90
2023-01-02T09:38:40.549Z,7.00
2023-01-02T09:41:11.025Z,7.20
2023-01-02T09:43:40.439Z,7.30
2023-01-02T09:46:10.942Z,7.40
2023-01-02T09:48:37.666Z,7.50
2023-01-02T09:51:07.823Z,7.60
2023-01-02T09:53:34.925Z,7.60
2023-01-02T09:56:10.726Z,7.70
2023-01-02T09:58:41.319Z,7.80
2023-01-02T10:01:21.990Z,7.80
2023-01-02T10:04:09.011Z,7.90
2023-01-02T10:06:40.944Z,7.90
2023-01-02T10:09:30.295Z,8.00
2023-01-02T10:12:04.123Z,8.20
2023-01-02T10:14:44.988Z,8.20
2023-01-02T10:17:13.941Z,8.20
2023-01-02T10:19:43.510Z,8.20
2023-01-02T10:22:13.386Z,8.30
2023-01-02T10:24:43.222Z,8.30
2023-01-02T10:27:18.981Z,8.40
2023-01-02T10:29:50.917Z,8.50
2023-01-02T10:32:18.721Z,8.60
2023-01-02T10:34:59.441Z,8.70
2023-01-02T10:37:26.183Z,8.90
2023-01-02T10:39:52.978Z,8.90
2023-01-02T10:42:19.679Z,8.90
2023-01-02T10:44:46.625Z,8.90
2023-01-02T10:47:13.314Z,8.90
2023-01-02T10:49:40.626Z,9.00
2023-01-02T10:52:12.154Z,9.10
2023-01-02T10:54:59.029Z,9.20
2023-01-02T10:57:41.238Z,9.20
2023-01-02T11:00:29.720Z,9.40
2023-01-02T11:02:59.114Z,9.40
2023-01-02T11:05:30.414Z,9.50
2023-01-02T11:07:57.475Z,9.50
2023-01-02T11:10:29.286Z,9.70
2023-01-02T11:12:55.978Z,9.60
2023-01-02T11:15:24.696Z,9.70
2023-01-02T11:17:51.394Z,9.70
2023-01-02T11:20:21.236Z,9.70
2023-01-02T11:22:48.012Z,9.70
2023-01-02T11:25:22.556Z,9.70
2023-01-02T11:27:49.416Z,9.70
2023-01-02T11:30:25.188Z,9.90
2023-01-02T11:33:01.044Z,9.90
2023-01-02T11:35:30.248Z,9.90
2023-01-02T11:37:56.893Z,9.90
2023-01-02T11:40:27.854Z,10.00
2023-01-02T11:43:15.418Z,10.10
2023-01-02T11:45:42.380Z,10.40
2023-01-02T11:48:28.700Z,10.40
2023-01-02T11:50:55.442Z,10.40
2023-01-02T11:53:30.059Z,10.40
2023-01-02T11:56:04.902Z,10.40
2023-01-02T11:58:40.258Z,10.50
2023-01-02T12:01:13.530Z,10.80
2023-01-02T12:03:40.634Z,11.00
2023-01-02T12:06:07.336Z,11.20
2023-01-02T12:08:47.494Z,11.20
2023-01-02T12:11:20.689Z,11.30
2023-01-02T12:13:47.368Z,11.30
2023-01-02T12:16:27.792Z,11.40
2023-01-02T12:19:03.693Z,11.50
2023-01-02T12:21:56.812Z,11.60
2023-01-02T12:24:48.809Z,11.60
2023-01-02T12:27:19.569Z,11.60
2023-01-02T12:30:05.191Z,11.70
2023-01-02T12:32:31.971Z,11.80
2023-01-02T12:34:58.607Z,12.00
2023-01-02T12:37:32.784Z,12.00
2023-01-02T12:40:04.799Z,12.10
2023-01-02T12:42:50.532Z,12.30
2023-01-02T12:45:29.578Z,12.30
2023-01-02T12:48:04.893Z,12.20
2023-01-02T12:50:49.016Z,12.20
2023-01-02T12:53:34.536Z,12.20
2023-01-02T12:56:17.658Z,12.40
2023-01-02T12:58:53.956Z,12.30
2023-01-02T13:01:23.002Z,12.30
2023-01-02T13:03:52.964Z,12.20
2023-01-02T13:06:44.643Z,12.20
2023-01-02T13:09:21.959Z,12.20
2023-01-02T13:11:55.397Z,12.20
2023-01-02T13:14:27.071Z,12.20
2023-01-02T13:16:59.199Z,12.20
2023-01-02T13:19:35.290Z,12.50
2023-01-02T13:22:20.795Z,12.70
2023-01-02T13:24:47.674Z,12.80
2023-01-02T13:27:14.383Z,12.60
2023-01-02T13:29:42.785Z,12.50
2023-01-02T13:32:11.009Z,12.50
2023-01-02T13:34:40.961Z,12.50
2023-01-02T13:37:13.821Z,12.40
2023-01-02T13:39:40.453Z,12.40
2023-01-02T13:42:46.240Z,12.30
2023-01-02T13:45:23.413Z,12.40
2023-01-02T13:47:52.254Z,12.30
2023-01-02T13:50:25.199Z,12.20
2023-01-02T13:53:10.284Z,12.30
2023-01-02T13:55:56.969Z,12.30
2023-01-02T13:58:25.144Z,12.20
2023-01-02T14:00:55.340Z,12.20
2023-01-02T14:03:28.041Z,12.00
2023-01-02T14:05:58.385Z,11.90
2023-01-02T14:08:29.513Z,11.60
2023-01-02T14:11:02.277Z,11.50
2023-01-02T14:13:43.880Z,11.30
2023-01-02T14:16:11.940Z,11.10
2023-01-02T14:18:45.865Z,11.00
2023-01-02T14:21:13.812Z,10.90
2023-01-02T14:23:42.338Z,10.80
2023-01-02T14:26:32.157Z,10.80
2023-01-02T14:28:59.671Z,10.80
2023-01-02T14:31:33.407Z,10.90
2023-01-02T14:34:00.905Z,10.90
2023-01-02T14:36:41.333Z,10.80
2023-01-02T14:39:10.714Z,10.80
2023-01-02T14:41:59.288Z,10.70
2023-01-02T14:44:25.972Z,10.60
2023-01-02T14:46:52.732Z,10.50
2023-01-02T14:49:25.286Z,10.30
2023-01-02T14:52:02.001Z,10.20
2023-01-02T14:54:50.785Z,10.10
2023-01-02T14:57:25.744Z,9.90
2023-01-02T14:59:53.288Z,9.80
2023-01-02T15:02:21.658Z,9.70
2023-01-02T15:04:54.258Z,9.60
2023-01-02T15:07:34.609Z,9.60
2023-01-02T15:10:09.793Z,9.50
2023-01-02T15:13:01.717Z,9.40
2023-01-02T15:15:29.484Z,9.30
2023-01-02T15:18:00.385Z,9.20
2023-01-02T15:20:27.845Z,9.00
2023-01-02T15:22:58.979Z,8.90
2023-01-02T15:25:30.124Z,8.90
2023-01-02T15:27:56.770Z,8.80
2023-01-02T15:30:27.716Z,8.80
2023-01-02T15:32:54.333Z,8.60
2023-01-02T15:35:31.393Z,8.50
2023-01-02T15:37:58.111Z,8.50
2023-01-02T15:40:29.102Z,8.40
2023-01-02T15:43:16.395Z,8.40
2023-01-02T15:45:46.278Z,8.40
2023-01-02T15:48:13.990Z,8.30
2023-01-02T15:50:41.131Z,8.30
2023-01-02T15:53:27.964Z,8.20
2023-01-02T15:55:54.793Z,8.10
2023-01-02T15:58:26.756Z,8.00
2023-01-02T16:01:13.619Z,8.00
2023-01-02T16:04:02.516Z,7.90
2023-01-02T16:06:35.701Z,7.90
2023-01-02T16:09:04.026Z,7.80
2023-01-02T16:11:44.579Z,7.80
2023-01-02T16:14:20.490Z,7.70
2023-01-02T16:16:49.330Z,7.70
2023-01-02T16:19:18.478Z,7.70
2023-01-02T16:21:45.540Z,7.70
2023-01-02T16:24:16.651Z,7.60
2023-01-02T16:26:43.476Z,7.50
2023-01-02T16:29:18.376Z,7.50
2023-01-02T16:31:52.907Z,7.50
2023-01-02T16:34:26.048Z,7.40
2023-01-02T16:37:11.286Z,7.30
2023-01-02T16:39:48.776Z,7.00
2023-01-02T16:42:36.530Z,6.80
2023-01-02T16:45:05.761Z,6.80
2023-01-02T16:47:37.468Z,6.80
2023-01-02T16:50:06.656Z,6.90
2023-01-02T16:52:33.916Z,6.90
2023-01-02T16:55:00.670Z,6.80
2023-01-02T16:57:27.313Z,6.80
2023-01-02T16:59:54.021Z,6.80
2023-01-02T17:02:20.748Z,6.80
2023-01-02T17:04:47.393Z,6.60
2023-01-02T17:07:20.089Z,6.60
2023-01-02T17:09:48.682Z,6.60
2023-01-02T17:12:17.384Z,6.60
2023-01-02T17:14:43.987Z,6.50
2023-01-02T17:17:10.691Z,6.50
2023-01-02T17:19:37.378Z,6.40
2023-01-02T17:22:04.153Z,6.40
2023-01-02T17:24:33.830Z,6.40
2023-01-02T17:27:00.573Z,6.20
2023-01-02T17:29:28.986Z,6.20
2023-01-02T17:31:55.702Z,6.20
2023-01-02T17:34:22.388Z,6.10
2023-01-02T17:36:49.149Z,6.10
2023-01-02T17:39:16.834Z,6.10
2023-01-02T17:41:43.509Z,6.10
2023-01-02T17:44:10.177Z,6.10
2023-01-02T17:49:23.710Z,6.10
2023-01-02T17:51:50.407Z,6.10
2023-01-02T17:58:05.486Z,5.90
2023-01-02T18:00:32.437Z,5.90
2023-01-02T18:02:59.138Z,5.90
2023-01-02T18:05:25.819Z,5.80
2023-01-02T18:07:52.481Z,5.70
2023-01-02T18:10:21.074Z,5.60
2023-01-02T18:12:49.817Z,5.60
2023-01-02T18:15:17.451Z,5.70
2023-01-02T18:17:44.179Z,5.70
2023-01-02T18:20:14.652Z,5.70
2023-01-02T18:22:48.529Z,5.70
2023-01-02T18:25:16.584Z,5.70
2023-01-02T18:27:43.367Z,5.70
2023-01-02T18:30:16.675Z,5.60
2023-01-02T18:32:43.604Z,5.60
2023-01-02T18:35:46.667Z,5.50
2023-01-02T18:38:06.451Z,5.50
2023-01-02T18:40:34.670Z,5.50
2023-01-02T18:48:18.451Z,5.10
2023-01-02T18:50:52.228Z,5.10
2023-01-02T18:53:21.167Z,5.10
2023-01-02T18:55:49.800Z,5.10
2023-01-02T18:58:22.613Z,5.00
2023-01-02T19:00:49.258Z,5.00
2023-01-02T19:03:24.014Z,5.00
2023-01-02T19:05:50.752Z,5.00
2023-01-02T19:08:24.568Z,5.00
2023-01-02T19:10:54.148Z,5.00
2023-01-02T19:13:36.162Z,5.00
2023-01-02T19:16:11.133Z,4.90
2023-01-02T19:18:58.040Z,4.90
2023-01-02T19:21:28.834Z,4.90
2023-01-02T19:24:04.663Z,4.90
2023-01-02T19:26:36.254Z,4.90
2023-01-02T19:29:09.216Z,4.80
2023-01-02T19:31:38.897Z,4.80
2023-01-02T19:34:16.940Z,4.80
2023-01-02T19:36:45.014Z,4.80
2023-01-02T19:39:19.497Z,4.80
2023-01-02T19:42:04.992Z,4.80
2023-01-02T19:44:31.611Z,4.80
2023-01-02T19:46:58.247Z,4.80
2023-01-02T19:49:24.901Z,4.80
2023-01-02T19:51:51.644Z,4.70
2023-01-02T19:54:26.674Z,4.60
2023-01-02T19:56:53.401Z,4.60
2023-01-02T19:59:20.063Z,4.50
2023-01-02T20:01:49.822Z,4.60
2023-01-02T20:04:16.607Z,4.60
2023-01-02T20:06:43.275Z,4.50
2023-01-02T20:09:10.043Z,4.40
2023-01-02T20:11:55.397Z,4.40
2023-01-02T20:14:23.229Z,4.50
2023-01-02T20:16:49.870Z,4.50
2023-01-02T20:19:16.554Z,4.50
2023-01-02T20:21:43.212Z,4.60
2023-01-02T20:25:15.893Z,4.70
2023-01-02T20:27:16.392Z,4.80
2023-01-02T20:29:43.335Z,4.70
2023-01-02T20:32:10.250Z,4.80
2023-01-02T20:34:36.999Z,4.80
2023-01-02T20:37:03.878Z,4.90
2023-01-02T20:40:17.845Z,5.00
2023-01-02T20:42:53.505Z,5.00
2023-01-02T20:45:29.542Z,5.10
2023-01-02T20:47:57.249Z,5.10
2023-01-02T20:50:25.938Z,5.20
2023-01-02T20:52:57.089Z,5.20
2023-01-02T20:55:24.097Z,5.20
2023-01-02T20:57:51.701Z,5.20
2023-01-02T21:08:31.972Z,5.20
2023-01-02T21:10:58.651Z,5.30
2023-01-02T21:13:25.293Z,5.40
2023-01-02T21:15:52.071Z,5.50
2023-01-02T21:18:23.142Z,5.50
2023-01-02T21:24:11.910Z,5.70
2023-01-02T21:26:41.629Z,5.70
2023-01-02T21:29:09.395Z,5.70
2023-01-02T21:31:37.253Z,5.70
2023-01-02T21:37:43.856Z,5.60
2023-01-02T21:40:10.852Z,5.60
2023-01-02T21:42:45.089Z,5.70
2023-01-02T21:51:32.669Z,5.60
2023-01-02T21:54:07.136Z,5.70
2023-01-02T21:56:36.903Z,5.80
2023-01-02T22:03:04.021Z,5.90
2023-01-02T22:05:30.950Z,5.90
2023-01-02T22:07:57.718Z,5.80
2023-01-02T22:14:43.578Z,5.80
2023-01-02T22:17:12.766Z,5.80
2023-01-02T22:17:20.541Z,5.80
2023-01-02T22:19:39.596Z,5.80
2023-01-02T22:22:49.333Z,5.80
2023-01-02T22:27:58.062Z,5.90
2023-01-02T22:30:33.430Z,6.00
2023-01-02T22:36:25.498Z,6.10
2023-01-02T22:43:08.551Z,5.90
2023-01-02T22:48:57.425Z,5.90
2023-01-02T22:52:06.011Z,6.00
2023-01-02T22:54:27.290Z,6.10
2023-01-02T22:56:58.056Z,6.10
2023-01-02T22:59:24.715Z,6.20
2023-01-02T23:01:51.415Z,6.20
2023-01-02T23:04:20.513Z,6.20
2023-01-02T23:07:22.385Z,6.20
2023-01-02T23:09:43.114Z,6.20
2023-01-02T23:12:39.187Z,6.20
2023-01-02T23:15:07.182Z,6.20
2023-01-02T23:17:56.725Z,6.30
2023-01-02T23:20:52.339Z,6.30
2023-01-02T23:23:19.074Z,6.30
2023-01-02T23:25:46.604Z,6.30
2023-01-02T23:28:31.874Z,6.30
2023-01-02T23:31:00.971Z,6.30
2023-01-02T23:33:34.878Z,6.30
2023-01-02T23:36:01.538Z,6.30
2023-01-02T23:50:40.282Z,6.50
2023-01-02T23:53:06.910Z,6.50
2023-01-02T23:55:33.648Z,6.50
